createdAt,value
2019-04-11T02:01:34.904Z,564.00
2019-04-11T02:02:34.781Z,552.00
2019-04-11T02:04:27.918Z,556.00
2019-04-11T02:05:27.519Z,528.00
2019-04-11T02:07:20.628Z,548.00
2019-04-11T02:08:20.433Z,528.00
2019-04-11T02:10:13.370Z,512.00
2019-04-11T02:11:13.359Z,528.00
2019-04-11T02:13:06.269Z,536.00
2019-04-11T02:14:12.446Z,496.00
2019-04-11T02:16:00.356Z,488.00
2019-04-11T02:16:59.360Z,452.00
2019-04-11T02:18:52.125Z,400.00
2019-04-11T02:19:52.374Z,384.00
2019-04-11T02:21:46.160Z,456.00
2019-04-11T02:22:45.067Z,476.00
2019-04-11T02:24:37.982Z,492.00
2019-04-11T02:25:38.701Z,492.00
2019-04-11T02:27:30.915Z,412.00
2019-04-11T02:28:30.991Z,380.00
2019-04-11T02:30:25.399Z,344.00
2019-04-11T02:31:23.866Z,340.00
2019-04-11T02:33:18.358Z,404.00
2019-04-11T02:34:16.862Z,436.00
2019-04-11T02:36:11.702Z,496.00
2019-04-11T02:37:09.779Z,492.00
2019-04-11T02:39:07.984Z,440.00
2019-04-11T02:40:03.232Z,420.00
2019-04-11T02:41:56.937Z,472.00
2019-04-11T02:42:57.165Z,508.00
2019-04-11T02:45:03.537Z,480.00
2019-04-11T02:45:58.244Z,436.00
2019-04-11T02:47:45.736Z,404.00
2019-04-11T02:48:42.694Z,468.00
2019-04-11T02:50:36.322Z,636.00
2019-04-11T02:51:34.630Z,672.00
2019-04-11T02:53:28.650Z,712.00
2019-04-11T02:54:28.383Z,732.00
2019-04-11T02:56:21.275Z,828.00
2019-04-11T02:57:21.620Z,820.00
2019-04-11T02:59:14.102Z,820.00
2019-04-11T03:00:13.289Z,844.00
2019-04-11T03:02:07.108Z,924.00
2019-04-11T03:03:07.949Z,940.00
2019-04-11T03:05:00.444Z,932.00
2019-04-11T03:05:59.999Z,928.00
2019-04-11T03:07:52.010Z,928.00
2019-04-11T03:08:53.056Z,952.00
2019-04-11T03:10:45.982Z,956.00
2019-04-11T03:11:45.179Z,980.00
2019-04-11T03:13:38.488Z,996.00
2019-04-11T03:14:51.877Z,996.00
2019-04-11T03:16:42.742Z,976.00
2019-04-11T03:17:35.919Z,980.00
2019-04-11T03:19:37.572Z,952.00
2019-04-11T03:20:31.314Z,984.00
2019-04-11T03:22:18.222Z,964.00
2019-04-11T03:23:20.472Z,960.00
2019-04-11T03:25:09.636Z,924.00
2019-04-11T03:26:10.311Z,956.00
2019-04-11T03:28:02.834Z,936.00
2019-04-11T03:29:04.078Z,912.00
2019-04-11T03:31:26.634Z,856.00
2019-04-11T03:32:37.059Z,868.00
2019-04-11T03:38:03.793Z,944.00
2019-04-11T03:39:56.952Z,876.00
2019-04-11T03:40:55.273Z,824.00
2019-04-11T03:42:38.127Z,776.00
2019-04-11T03:43:39.500Z,736.00
2019-04-11T03:45:38.427Z,700.00
2019-04-11T03:46:38.099Z,744.00
2019-04-11T03:48:29.247Z,808.00
2019-04-11T03:49:25.008Z,852.00
2019-04-11T03:51:06.092Z,984.00
2019-04-11T03:52:08.204Z,1008.00
2019-04-11T03:53:59.273Z,996.00
2019-04-11T03:55:00.456Z,1024.00
2019-04-11T03:56:53.457Z,1036.00
2019-04-11T03:57:54.293Z,1016.00
2019-04-11T03:59:45.806Z,1004.00
2019-04-11T04:00:46.510Z,976.00
2019-04-11T04:02:39.110Z,948.00
2019-04-11T04:03:39.246Z,912.00
2019-04-11T04:05:36.172Z,824.00
2019-04-11T04:06:31.114Z,792.00
2019-04-11T04:08:24.726Z,752.00
2019-04-11T04:09:24.590Z,752.00
2019-04-11T04:11:18.490Z,808.00
2019-04-11T04:12:16.725Z,848.00
2019-04-11T04:14:10.502Z,936.00
2019-04-11T04:15:13.042Z,928.00
2019-04-11T04:17:04.188Z,972.00
2019-04-11T04:18:03.606Z,1004.00
2019-04-11T04:19:56.604Z,1016.00
2019-04-11T04:20:55.512Z,1004.00
2019-04-11T04:22:49.945Z,960.00
2019-04-11T04:23:49.689Z,960.00
2019-04-11T04:25:44.954Z,980.00
2019-04-11T04:26:43.045Z,1012.00
2019-04-11T04:28:35.690Z,1084.00
2019-04-11T04:29:36.965Z,1100.00
2019-04-11T04:31:28.654Z,1096.00
2019-04-11T04:32:28.007Z,1084.00
2019-04-11T04:34:21.769Z,1040.00
2019-04-11T04:35:22.144Z,1020.00
2019-04-11T04:37:14.064Z,1012.00
2019-04-11T04:38:13.627Z,1012.00
2019-04-11T04:40:25.469Z,1020.00
2019-04-11T04:41:18.888Z,980.00
2019-04-11T04:43:02.943Z,956.00
2019-04-11T04:44:01.655Z,940.00
2019-04-11T04:46:08.435Z,888.00
2019-04-11T04:47:09.196Z,872.00
2019-04-11T04:48:47.739Z,896.00
2019-04-11T04:49:48.210Z,940.00
2019-04-11T04:51:41.443Z,1056.00
2019-04-11T04:52:40.860Z,1120.00
2019-04-11T04:54:33.423Z,1144.00
2019-04-11T04:55:32.729Z,1144.00
2019-04-11T04:57:26.773Z,1056.00
2019-04-11T04:58:26.434Z,1004.00
2019-04-11T05:00:18.843Z,824.00
2019-04-11T05:01:19.372Z,740.00
2019-04-11T05:03:11.385Z,688.00
2019-04-11T05:04:13.218Z,612.00
2019-04-11T05:06:04.760Z,580.00
2019-04-11T05:07:05.276Z,636.00
2019-04-11T05:08:58.071Z,776.00
2019-04-11T05:09:58.574Z,836.00
2019-04-11T05:11:50.822Z,812.00
2019-04-11T05:12:51.375Z,780.00
2019-04-11T05:14:43.451Z,736.00
2019-04-11T05:15:43.686Z,764.00
2019-04-11T05:17:36.373Z,796.00
2019-04-11T05:18:36.433Z,776.00
2019-04-11T05:20:30.186Z,728.00
2019-04-11T05:21:29.942Z,700.00
2019-04-11T05:23:23.508Z,680.00
2019-04-11T05:24:22.986Z,676.00
2019-04-11T05:26:15.803Z,692.00
2019-04-11T05:27:15.817Z,708.00
2019-04-11T05:29:09.084Z,708.00
2019-04-11T05:30:09.362Z,712.00
2019-04-11T05:32:01.702Z,736.00
2019-04-11T05:33:01.887Z,756.00
2019-04-11T05:34:54.638Z,780.00
2019-04-11T05:35:54.654Z,772.00
2019-04-11T05:37:48.133Z,740.00
2019-04-11T05:38:48.651Z,732.00
2019-04-11T05:40:40.585Z,728.00
2019-04-11T05:41:44.772Z,724.00
2019-04-11T05:43:37.290Z,696.00
2019-04-11T05:44:37.369Z,672.00
2019-04-11T05:46:36.136Z,624.00
2019-04-11T05:47:27.548Z,632.00
2019-04-11T05:49:21.644Z,652.00
2019-04-11T05:50:20.110Z,724.00
2019-04-11T05:52:12.378Z,844.00
2019-04-11T05:53:12.303Z,888.00
2019-04-11T05:55:08.257Z,820.00
2019-04-11T05:56:05.239Z,808.00
2019-04-11T05:57:58.655Z,824.00
2019-04-11T05:58:58.184Z,816.00
2019-04-11T06:00:51.100Z,880.00
2019-04-11T06:01:51.121Z,928.00
2019-04-11T06:03:45.502Z,932.00
2019-04-11T06:04:46.894Z,944.00
2019-04-11T06:06:40.220Z,972.00
2019-04-11T06:07:40.034Z,1012.00
2019-04-11T06:09:32.965Z,1044.00
2019-04-11T06:10:30.313Z,1052.00
2019-04-11T06:12:22.869Z,972.00
2019-04-11T06:13:22.891Z,932.00
2019-04-11T06:15:15.811Z,944.00
2019-04-11T06:16:16.727Z,932.00
2019-04-11T06:18:08.756Z,892.00
2019-04-11T06:19:08.774Z,888.00
2019-04-11T06:21:01.951Z,836.00
2019-04-11T06:22:01.724Z,832.00
2019-04-11T06:23:55.722Z,852.00
2019-04-11T06:24:54.659Z,852.00
2019-04-11T06:26:47.583Z,920.00
2019-04-11T06:27:47.605Z,944.00
2019-04-11T06:29:41.040Z,972.00
2019-04-11T06:30:40.541Z,984.00
2019-04-11T06:32:34.122Z,960.00
2019-04-11T06:33:34.514Z,904.00
2019-04-11T06:35:28.190Z,840.00
2019-04-11T06:36:26.745Z,792.00
2019-04-11T06:38:20.353Z,736.00
2019-04-11T06:39:19.365Z,740.00
2019-04-11T06:41:12.528Z,764.00
2019-04-11T06:42:12.911Z,732.00
2019-04-11T06:44:05.231Z,708.00
2019-04-11T06:45:06.432Z,720.00
2019-04-11T06:47:00.650Z,824.00
2019-04-11T06:47:59.028Z,908.00
2019-04-11T06:49:51.111Z,1032.00
2019-04-11T06:50:51.337Z,1056.00
2019-04-11T06:52:45.142Z,1084.00
2019-04-11T06:53:44.186Z,1096.00
2019-04-11T06:55:37.101Z,1092.00
2019-04-11T06:56:37.007Z,1140.00
2019-04-11T06:58:29.935Z,1044.00
2019-04-11T06:59:30.201Z,868.00
2019-04-11T07:01:22.873Z,792.00
2019-04-11T07:02:24.625Z,784.00
2019-04-11T07:04:15.817Z,764.00
2019-04-11T07:05:16.132Z,760.00
2019-04-11T07:07:09.897Z,768.00
2019-04-11T07:08:09.615Z,792.00
2019-04-11T07:10:02.120Z,792.00
2019-04-11T07:11:02.867Z,784.00
2019-04-11T07:12:55.973Z,840.00
2019-04-11T07:13:55.490Z,880.00
2019-04-11T07:15:48.457Z,888.00
2019-04-11T07:16:59.282Z,880.00
2019-04-11T07:18:40.537Z,896.00
2019-04-11T07:19:41.530Z,944.00
2019-04-11T07:21:33.479Z,1068.00
2019-04-11T07:22:34.559Z,1136.00
2019-04-11T07:24:26.421Z,1224.00
2019-04-11T07:25:26.849Z,1276.00
2019-04-11T07:27:20.177Z,1288.00
2019-04-11T07:28:19.381Z,1196.00
2019-04-11T07:30:13.307Z,1040.00
2019-04-11T07:31:12.817Z,1024.00
2019-04-11T07:33:06.014Z,1088.00
2019-04-11T07:34:06.213Z,1116.00
2019-04-11T07:35:59.777Z,1176.00
2019-04-11T07:36:58.209Z,1200.00
2019-04-11T07:38:52.306Z,1344.00
2019-04-11T07:39:51.611Z,1332.00
2019-04-11T07:41:45.654Z,1312.00
2019-04-11T07:42:44.114Z,1280.00
2019-04-11T07:44:37.033Z,1276.00
2019-04-11T07:45:38.532Z,1236.00
2019-04-11T07:47:29.968Z,1200.00
2019-04-11T07:48:29.985Z,1248.00
2019-04-11T07:50:23.157Z,1200.00
2019-04-11T07:51:23.321Z,1168.00
2019-04-11T07:53:15.858Z,1152.00
2019-04-11T07:54:15.893Z,1136.00
2019-04-11T07:56:09.784Z,1108.00
2019-04-11T07:57:08.810Z,1048.00
2019-04-11T07:59:02.916Z,780.00
2019-04-11T08:00:01.765Z,656.00
2019-04-11T08:01:54.972Z,568.00
2019-04-11T08:02:55.243Z,568.00
2019-04-11T08:04:47.621Z,540.00
2019-04-11T08:05:47.634Z,536.00
2019-04-11T08:07:42.528Z,556.00
2019-04-11T08:08:41.572Z,584.00
2019-04-11T08:10:35.143Z,600.00
2019-04-11T08:11:34.513Z,580.00
2019-04-11T08:13:28.311Z,488.00
2019-04-11T08:14:28.560Z,484.00
2019-04-11T08:16:20.451Z,496.00
2019-04-11T08:17:27.988Z,516.00
2019-04-11T08:19:13.316Z,512.00
2019-04-11T08:20:13.333Z,492.00
2019-04-11T08:22:06.412Z,524.00
2019-04-11T08:23:07.497Z,532.00
2019-04-11T08:24:59.209Z,564.00
2019-04-11T08:25:59.934Z,604.00
2019-04-11T08:28:00.284Z,688.00
2019-04-11T08:29:01.362Z,704.00
2019-04-11T08:30:45.097Z,768.00
2019-04-11T08:31:45.106Z,804.00
2019-04-11T08:33:38.428Z,780.00
2019-04-11T08:34:38.043Z,752.00
2019-04-11T08:36:31.718Z,712.00
2019-04-11T08:37:31.654Z,684.00
2019-04-11T08:39:24.827Z,560.00
2019-04-11T08:40:23.984Z,524.00
2019-04-11T08:42:17.017Z,524.00
2019-04-11T08:43:17.178Z,544.00
2019-04-11T08:45:09.793Z,560.00
2019-04-11T08:46:10.945Z,556.00
2019-04-11T08:48:02.741Z,572.00
2019-04-11T08:49:03.636Z,596.00
2019-04-11T08:50:55.674Z,644.00
2019-04-11T08:51:55.798Z,652.00
2019-04-11T08:53:49.014Z,648.00
2019-04-11T08:54:48.632Z,648.00
2019-04-11T08:56:41.561Z,664.00
2019-04-11T08:57:42.646Z,648.00
2019-04-11T08:59:35.629Z,652.00
2019-04-11T09:00:34.691Z,644.00
2019-04-11T09:02:27.443Z,584.00
2019-04-11T09:03:27.463Z,540.00
2019-04-11T09:05:20.740Z,488.00
2019-04-11T09:06:20.803Z,500.00
2019-04-11T09:08:14.224Z,464.00
2019-04-11T09:09:13.362Z,420.00
2019-04-11T09:11:06.577Z,368.00
2019-04-11T09:12:06.564Z,324.00
2019-04-11T09:13:59.809Z,300.00
2019-04-11T09:15:00.259Z,292.00
2019-04-11T09:16:52.201Z,308.00
2019-04-11T09:17:58.858Z,308.00
2019-04-11T09:19:45.470Z,292.00
2019-04-11T09:20:45.615Z,260.00
2019-04-11T09:22:38.026Z,204.00
2019-04-11T09:23:38.045Z,184.00
2019-04-11T09:25:31.834Z,164.00
2019-04-11T09:26:31.967Z,156.00
2019-04-11T09:28:24.937Z,144.00
2019-04-11T09:29:24.134Z,144.00
2019-04-11T09:31:17.074Z,140.00
2019-04-11T09:32:17.933Z,136.00
2019-04-11T09:34:09.801Z,128.00
2019-04-11T09:35:10.246Z,128.00
2019-04-11T09:37:03.165Z,124.00
2019-04-11T09:38:02.757Z,128.00
2019-04-11T09:39:55.673Z,136.00
2019-04-11T09:40:57.024Z,144.00
2019-04-11T09:42:48.622Z,160.00
2019-04-11T09:43:48.635Z,164.00
2019-04-11T09:45:41.750Z,168.00
2019-04-11T09:46:42.780Z,180.00
2019-04-11T09:48:35.045Z,204.00
2019-04-11T09:49:36.062Z,216.00
2019-04-11T09:51:29.463Z,228.00
2019-04-11T09:52:27.459Z,228.00
2019-04-11T09:53:28.279Z,228.00
2019-04-11T09:54:28.265Z,232.00
2019-04-11T09:55:27.520Z,244.00
2019-04-11T09:56:27.566Z,236.00
2019-04-11T09:57:28.848Z,232.00
2019-04-11T09:58:27.603Z,228.00
2019-04-11T09:59:27.615Z,224.00
2019-04-11T10:00:28.896Z,212.00
2019-04-11T10:01:28.730Z,200.00
2019-04-11T10:02:27.676Z,184.00
2019-04-11T10:03:27.949Z,172.00
2019-04-11T10:04:27.746Z,152.00
2019-04-11T10:05:27.747Z,148.00
2019-04-11T10:06:28.085Z,136.00
2019-04-11T10:07:28.197Z,120.00
2019-04-11T10:08:27.810Z,124.00
2019-04-11T10:09:28.223Z,136.00
2019-04-11T10:10:28.915Z,148.00
2019-04-11T10:11:28.230Z,152.00
2019-04-11T10:12:27.902Z,156.00
2019-04-11T10:13:28.895Z,156.00
2019-04-11T10:14:29.298Z,148.00
2019-04-11T10:15:29.655Z,140.00
2019-04-11T10:16:28.412Z,136.00
2019-04-11T10:17:28.014Z,128.00
2019-04-11T10:18:33.717Z,132.00
2019-04-11T10:19:28.055Z,128.00
2019-04-11T10:20:28.821Z,120.00
2019-04-11T10:21:28.996Z,116.00
2019-04-11T10:22:29.176Z,112.00
2019-04-11T10:23:29.206Z,112.00
2019-04-11T10:24:28.235Z,108.00
2019-04-11T10:25:28.822Z,108.00
2019-04-11T10:26:28.209Z,108.00
2019-04-11T10:27:28.807Z,100.00
2019-04-11T10:28:29.337Z,100.00
2019-04-11T10:29:30.404Z,92.00
2019-04-11T10:30:29.281Z,92.00
2019-04-11T10:31:28.457Z,80.00
2019-04-11T10:32:28.340Z,80.00
2019-04-11T10:33:28.883Z,68.00
2019-04-11T10:34:28.401Z,64.00
2019-04-11T10:35:28.424Z,64.00
2019-04-11T10:36:29.481Z,56.00
2019-04-11T10:37:28.634Z,60.00
2019-04-11T10:38:28.727Z,56.00
2019-04-11T10:39:29.171Z,52.00
2019-04-11T10:40:28.538Z,52.00
2019-04-11T10:41:28.613Z,44.00
2019-04-11T10:42:28.743Z,40.00
2019-04-11T10:43:28.702Z,36.00
2019-04-11T10:44:29.744Z,32.00
2019-04-11T10:45:28.874Z,32.00
2019-04-11T10:46:28.682Z,36.00
2019-04-11T10:47:29.191Z,36.00
2019-04-11T10:48:37.738Z,32.00
2019-04-11T10:49:28.754Z,32.00
2019-04-11T10:50:28.731Z,28.00
2019-04-11T10:51:29.561Z,28.00
2019-04-11T10:52:28.850Z,24.00
2019-04-11T10:53:29.050Z,24.00
2019-04-11T10:54:29.746Z,20.00
2019-04-11T10:55:29.391Z,20.00
2019-04-11T10:56:28.863Z,16.00
2019-04-11T10:57:29.867Z,20.00
2019-04-11T10:58:28.917Z,16.00
2019-04-11T10:59:30.236Z,20.00
2019-04-11T11:00:29.414Z,16.00
2019-04-11T11:01:28.976Z,16.00
2019-04-11T11:02:29.369Z,12.00
2019-04-11T11:03:29.136Z,12.00
2019-04-11T11:04:29.035Z,8.00
2019-04-11T11:05:29.066Z,8.00
2019-04-11T11:06:29.586Z,8.00
2019-04-11T11:07:29.102Z,8.00
2019-04-11T11:08:29.187Z,8.00
2019-04-11T11:09:30.213Z,4.00
2019-04-11T11:10:29.167Z,4.00
2019-04-11T11:11:30.377Z,4.00
2019-04-11T11:12:29.651Z,4.00
2019-04-11T11:13:29.900Z,4.00
2019-04-11T11:14:29.254Z,4.00
2019-04-11T11:15:29.446Z,4.00
2019-04-11T11:16:30.915Z,4.00
2019-04-11T11:17:47.101Z,0.00
2019-04-11T11:18:48.115Z,4.00
2019-04-11T11:19:45.616Z,4.00
2019-04-11T11:20:36.315Z,4.00
2019-04-11T11:21:32.134Z,4.00
2019-04-11T11:22:32.270Z,4.00
2019-04-11T11:23:29.452Z,4.00
2019-04-11T11:24:29.471Z,4.00
2019-04-11T11:25:29.525Z,4.00
2019-04-11T11:26:29.523Z,4.00
2019-04-11T11:27:30.398Z,4.00
2019-04-11T11:28:30.145Z,4.00
2019-04-11T11:29:29.587Z,4.00
2019-04-11T11:30:29.627Z,4.00
2019-04-11T11:31:29.970Z,4.00
2019-04-11T11:32:29.642Z,4.00
2019-04-11T11:33:30.088Z,4.00
2019-04-11T11:34:30.529Z,0.00
2019-04-11T11:35:33.695Z,4.00
2019-04-11T11:36:34.819Z,4.00
2019-04-11T11:37:29.752Z,4.00
2019-04-11T11:38:30.242Z,4.00
2019-04-11T11:39:31.007Z,0.00
2019-04-11T11:40:30.034Z,0.00
2019-04-11T11:41:30.267Z,0.00
2019-04-11T11:42:30.386Z,0.00
2019-04-11T11:43:30.979Z,0.00
2019-04-11T11:44:30.830Z,0.00
2019-04-11T11:45:29.930Z,4.00
2019-04-11T11:46:31.610Z,4.00
2019-04-11T11:47:33.135Z,0.00
2019-04-11T11:48:31.166Z,4.00
2019-04-11T11:49:43.787Z,0.00
2019-04-11T11:50:32.894Z,0.00
2019-04-11T11:51:31.199Z,4.00
2019-04-11T11:52:33.333Z,0.00
2019-04-11T11:53:31.296Z,0.00
2019-04-11T11:54:31.313Z,4.00
2019-04-11T11:55:31.415Z,0.00
2019-04-11T11:56:30.164Z,0.00
2019-04-11T11:57:30.864Z,4.00
2019-04-11T11:58:30.203Z,4.00
2019-04-11T11:59:30.679Z,4.00
2019-04-11T12:00:31.671Z,0.00
2019-04-11T12:01:31.533Z,4.00
2019-04-11T12:02:30.591Z,0.00
2019-04-11T12:03:31.166Z,4.00
2019-04-11T12:04:35.325Z,4.00
2019-04-11T12:05:30.352Z,0.00
2019-04-11T12:06:31.260Z,0.00
2019-04-11T12:07:33.738Z,0.00
2019-04-11T12:08:30.785Z,0.00
2019-04-11T12:09:30.837Z,0.00
2019-04-11T12:10:32.463Z,0.00
2019-04-11T12:11:30.483Z,0.00
2019-04-11T12:12:31.490Z,4.00
2019-04-11T12:13:30.526Z,4.00
2019-04-11T12:14:30.552Z,0.00
2019-04-11T12:15:30.569Z,0.00
2019-04-11T12:16:30.587Z,4.00
2019-04-11T12:17:32.491Z,4.00
2019-04-11T12:18:30.765Z,4.00
2019-04-11T12:19:42.672Z,4.00
2019-04-11T12:20:31.189Z,4.00
2019-04-11T12:21:31.422Z,0.00
2019-04-11T12:22:30.792Z,0.00
2019-04-11T12:23:41.969Z,0.00
2019-04-11T12:24:30.763Z,4.00
2019-04-11T12:25:31.413Z,4.00
2019-04-11T12:26:33.384Z,4.00
2019-04-11T12:27:31.155Z,4.00
2019-04-11T12:28:30.840Z,0.00
2019-04-11T12:29:30.918Z,0.00
2019-04-11T12:30:32.833Z,4.00
2019-04-11T12:31:32.195Z,0.00
2019-04-11T12:32:30.928Z,4.00
2019-04-11T12:33:30.947Z,4.00
2019-04-11T12:34:30.967Z,0.00
2019-04-11T12:35:30.990Z,4.00
2019-04-11T12:36:31.024Z,0.00
2019-04-11T12:37:31.699Z,4.00
2019-04-11T12:38:31.144Z,0.00
2019-04-11T12:39:31.107Z,0.00
2019-04-11T12:40:31.098Z,0.00
2019-04-11T12:41:31.125Z,0.00
2019-04-11T12:42:31.228Z,4.00
2019-04-11T12:43:31.165Z,4.00
2019-04-11T12:44:31.194Z,4.00
2019-04-11T12:45:31.197Z,0.00
2019-04-11T12:46:31.217Z,4.00
2019-04-11T12:47:31.255Z,4.00
2019-04-11T12:48:31.262Z,0.00
2019-04-11T12:49:31.282Z,4.00
2019-04-11T12:50:31.363Z,0.00
2019-04-11T12:51:31.324Z,4.00
2019-04-11T12:52:31.343Z,0.00
2019-04-11T12:53:31.368Z,4.00
2019-04-11T12:54:31.389Z,4.00
2019-04-11T12:55:31.410Z,0.00
2019-04-11T12:56:31.429Z,0.00
2019-04-11T12:57:31.450Z,4.00
2019-04-11T12:58:31.473Z,0.00
2019-04-11T12:59:31.496Z,4.00
2019-04-11T13:00:31.515Z,0.00
2019-04-11T13:01:31.535Z,0.00
2019-04-11T13:02:31.554Z,0.00
2019-04-11T13:03:31.575Z,0.00
2019-04-11T13:04:31.596Z,4.00
2019-04-11T13:05:31.619Z,4.00
2019-04-11T13:06:35.556Z,0.00
2019-04-11T13:07:31.664Z,4.00
2019-04-11T13:08:31.688Z,4.00
2019-04-11T13:09:31.701Z,0.00
2019-04-11T13:10:31.728Z,4.00
2019-04-11T13:11:31.870Z,0.00
2019-04-11T13:12:31.769Z,4.00
2019-04-11T13:13:31.789Z,0.00
2019-04-11T13:14:31.816Z,4.00
2019-04-11T13:15:31.831Z,4.00
2019-04-11T13:16:31.851Z,4.00
2019-04-11T13:17:31.869Z,4.00
2019-04-11T13:18:32.010Z,4.00
2019-04-11T13:19:31.926Z,0.00
2019-04-11T13:20:31.940Z,4.00
2019-04-11T13:21:31.954Z,0.00
2019-04-11T13:22:31.981Z,4.00
2019-04-11T13:23:31.995Z,4.00
2019-04-11T13:24:32.023Z,4.00
2019-04-11T13:25:32.125Z,0.00
2019-04-11T13:26:32.058Z,0.00
2019-04-11T13:27:32.076Z,0.00
2019-04-11T13:28:32.099Z,4.00
2019-04-11T13:29:32.177Z,4.00
2019-04-11T13:30:32.147Z,0.00
2019-04-11T13:31:32.186Z,0.00
2019-04-11T13:32:32.186Z,4.00
2019-04-11T13:33:32.203Z,0.00
2019-04-11T13:34:32.222Z,4.00
2019-04-11T13:35:32.251Z,4.00
2019-04-11T13:36:32.267Z,0.00
2019-04-11T13:37:32.291Z,4.00
2019-04-11T13:38:32.344Z,0.00
2019-04-11T13:39:32.568Z,0.00
2019-04-11T13:40:32.392Z,4.00
2019-04-11T13:41:32.372Z,4.00
2019-04-11T13:42:32.394Z,0.00
2019-04-11T13:43:32.413Z,0.00
2019-04-11T13:44:32.433Z,0.00
2019-04-11T13:45:32.461Z,4.00
2019-04-11T13:46:32.473Z,4.00
2019-04-11T13:47:32.523Z,0.00
2019-04-11T13:48:32.516Z,4.00
2019-04-11T13:49:32.545Z,0.00
2019-04-11T13:50:32.561Z,0.00
2019-04-11T13:51:32.582Z,4.00
2019-04-11T13:52:32.601Z,0.00
2019-04-11T13:53:32.643Z,0.00
2019-04-11T13:54:32.641Z,4.00
2019-04-11T13:55:32.681Z,4.00
2019-04-11T13:56:32.681Z,0.00
2019-04-11T13:57:32.704Z,0.00
2019-04-11T13:58:32.725Z,4.00
2019-04-11T13:59:32.746Z,0.00
2019-04-11T14:00:32.768Z,0.00
2019-04-11T14:01:32.794Z,0.00
2019-04-11T14:02:32.809Z,0.00
2019-04-11T14:03:32.830Z,0.00
2019-04-11T14:04:32.852Z,0.00
2019-04-11T14:05:32.871Z,0.00
2019-04-11T14:06:32.896Z,0.00
2019-04-11T14:07:32.911Z,0.00
2019-04-11T14:08:32.934Z,0.00
2019-04-11T14:09:32.954Z,0.00
2019-04-11T14:10:32.973Z,0.00
2019-04-11T14:11:33.774Z,0.00
2019-04-11T14:12:34.030Z,0.00
2019-04-11T14:13:34.585Z,0.00
2019-04-11T14:14:35.709Z,0.00
2019-04-11T14:15:36.428Z,0.00
2019-04-11T14:16:33.102Z,0.00
2019-04-11T14:17:33.122Z,0.00
2019-04-11T14:18:33.142Z,0.00
2019-04-11T14:19:33.161Z,0.00
2019-04-11T14:20:33.182Z,0.00
2019-04-11T14:21:33.205Z,0.00
2019-04-11T14:22:33.226Z,4.00
2019-04-11T14:23:33.247Z,0.00
2019-04-11T14:24:33.267Z,4.00
2019-04-11T14:25:33.289Z,0.00
2019-04-11T14:26:33.307Z,0.00
2019-04-11T14:27:33.327Z,0.00
2019-04-11T14:28:33.352Z,0.00
2019-04-11T14:29:33.369Z,0.00
2019-04-11T14:30:33.391Z,4.00
2019-04-11T14:31:33.412Z,0.00
2019-04-11T14:32:33.433Z,4.00
2019-04-11T14:33:33.457Z,4.00
2019-04-11T14:34:33.473Z,0.00
2019-04-11T14:35:33.494Z,0.00
2019-04-11T14:36:34.005Z,4.00
2019-04-11T14:37:38.526Z,4.00
2019-04-11T14:38:33.558Z,0.00
2019-04-11T14:39:33.576Z,0.00
2019-04-11T14:40:33.601Z,0.00
2019-04-11T14:41:33.621Z,0.00
2019-04-11T14:42:33.647Z,0.00
2019-04-11T14:43:33.659Z,4.00
2019-04-11T14:44:33.681Z,0.00
2019-04-11T14:45:36.538Z,0.00
2019-04-11T14:46:36.506Z,0.00
2019-04-11T14:47:34.784Z,4.00
2019-04-11T14:48:33.764Z,0.00
2019-04-11T14:49:33.785Z,0.00
2019-04-11T14:50:40.563Z,4.00
2019-04-11T14:51:33.827Z,4.00
2019-04-11T14:52:33.847Z,0.00
2019-04-11T14:53:33.869Z,4.00
2019-04-11T14:54:33.891Z,4.00
2019-04-11T14:55:33.912Z,4.00
2019-04-11T14:56:33.929Z,0.00
2019-04-11T14:57:33.950Z,0.00
2019-04-11T14:58:33.971Z,4.00
2019-04-11T14:59:33.993Z,0.00
2019-04-11T15:00:34.018Z,0.00
2019-04-11T15:01:34.034Z,0.00
2019-04-11T15:02:34.053Z,0.00
2019-04-11T15:03:34.075Z,0.00
2019-04-11T15:04:34.097Z,0.00
2019-04-11T15:05:34.115Z,0.00
2019-04-11T15:06:34.137Z,0.00
2019-04-11T15:07:34.156Z,0.00
2019-04-11T15:08:34.186Z,0.00
2019-04-11T15:09:34.198Z,0.00
2019-04-11T15:10:34.292Z,0.00
2019-04-11T15:11:34.239Z,0.00
2019-04-11T15:12:34.263Z,0.00
2019-04-11T15:13:34.281Z,0.00
2019-04-11T15:14:34.305Z,0.00
2019-04-11T15:15:34.326Z,0.00
2019-04-11T15:16:34.343Z,0.00
2019-04-11T15:17:34.365Z,0.00
2019-04-11T15:18:34.384Z,0.00
2019-04-11T15:19:34.404Z,0.00
2019-04-11T15:20:34.800Z,0.00
2019-04-11T15:21:36.315Z,0.00
2019-04-11T15:22:35.690Z,0.00
2019-04-11T15:23:37.527Z,0.00
2019-04-11T15:24:37.439Z,0.00
2019-04-11T15:25:35.723Z,0.00
2019-04-11T15:26:36.633Z,0.00
2019-04-11T15:27:38.402Z,0.00
2019-04-11T15:28:34.589Z,0.00
2019-04-11T15:29:34.614Z,0.00
2019-04-11T15:30:34.634Z,0.00
2019-04-11T15:31:39.422Z,0.00
2019-04-11T15:32:34.672Z,0.00
2019-04-11T15:33:34.696Z,0.00
2019-04-11T15:34:34.713Z,0.00
2019-04-11T15:35:34.736Z,0.00
2019-04-11T15:36:34.757Z,0.00
2019-04-11T15:37:34.777Z,0.00
2019-04-11T15:38:34.796Z,0.00
2019-04-11T15:39:44.118Z,0.00
2019-04-11T15:40:34.837Z,0.00
2019-04-11T15:41:34.857Z,0.00
2019-04-11T15:42:34.878Z,0.00
2019-04-11T15:43:34.901Z,0.00
2019-04-11T15:44:34.925Z,0.00
2019-04-11T15:45:34.954Z,0.00
2019-04-11T15:46:34.958Z,0.00
2019-04-11T15:47:34.980Z,0.00
2019-04-11T15:48:35.003Z,0.00
2019-04-11T15:49:35.025Z,0.00
2019-04-11T15:50:35.039Z,0.00
2019-04-11T15:51:35.201Z,0.00
2019-04-11T15:52:36.993Z,0.00
2019-04-11T15:53:36.948Z,0.00
2019-04-11T15:54:37.170Z,0.00
2019-04-11T15:55:37.506Z,0.00
2019-04-11T15:56:36.234Z,0.00
2019-04-11T15:57:35.186Z,0.00
2019-04-11T15:58:35.205Z,0.00
2019-04-11T15:59:35.234Z,0.00
2019-04-11T16:00:35.246Z,0.00
2019-04-11T16:01:35.269Z,0.00
2019-04-11T16:02:35.288Z,0.00
2019-04-11T16:03:35.309Z,0.00
2019-04-11T16:04:35.329Z,0.00
2019-04-11T16:05:35.351Z,0.00
2019-04-11T16:06:38.811Z,0.00
2019-04-11T16:07:37.409Z,0.00
2019-04-11T16:08:38.797Z,0.00
2019-04-11T16:09:35.433Z,0.00
2019-04-11T16:10:36.425Z,0.00
2019-04-11T16:11:35.471Z,0.00
2019-04-11T16:12:35.492Z,0.00
2019-04-11T16:13:35.517Z,0.00
2019-04-11T16:14:35.579Z,0.00
2019-04-11T16:15:35.552Z,0.00
2019-04-11T16:16:35.573Z,0.00
2019-04-11T16:17:35.595Z,0.00
2019-04-11T16:18:35.614Z,0.00
2019-04-11T16:19:35.645Z,0.00
2019-04-11T16:20:35.656Z,0.00
2019-04-11T16:21:35.675Z,0.00
2019-04-11T16:22:35.694Z,0.00
2019-04-11T16:23:35.719Z,0.00
2019-04-11T16:24:35.739Z,0.00
2019-04-11T16:25:35.761Z,0.00
2019-04-11T16:26:35.792Z,0.00
2019-04-11T16:27:36.669Z,0.00
2019-04-11T16:28:38.163Z,0.00
2019-04-11T16:29:38.784Z,0.00
2019-04-11T16:30:39.545Z,0.00
2019-04-11T16:31:37.833Z,0.00
2019-04-11T16:32:35.904Z,0.00
2019-04-11T16:33:35.922Z,0.00
2019-04-11T16:34:47.634Z,0.00
2019-04-11T16:35:35.962Z,0.00
2019-04-11T16:36:35.982Z,0.00
2019-04-11T16:37:36.005Z,0.00
2019-04-11T16:38:36.023Z,0.00
2019-04-11T16:39:36.048Z,0.00
2019-04-11T16:40:36.101Z,0.00
2019-04-11T16:41:36.085Z,0.00
2019-04-11T16:42:36.106Z,0.00
2019-04-11T16:43:36.154Z,0.00
2019-04-11T16:44:36.155Z,0.00
2019-04-11T16:45:36.167Z,0.00
2019-04-11T16:46:36.187Z,0.00
2019-04-11T16:47:36.211Z,0.00
2019-04-11T16:48:36.228Z,0.00
2019-04-11T16:49:36.249Z,0.00
2019-04-11T16:50:36.268Z,0.00
2019-04-11T16:51:36.291Z,0.00
2019-04-11T16:52:38.285Z,0.00
2019-04-11T16:53:36.331Z,0.00
2019-04-11T16:54:39.786Z,0.00
2019-04-11T16:55:36.863Z,0.00
2019-04-11T16:56:36.391Z,0.00
2019-04-11T16:57:36.416Z,0.00
2019-04-11T16:58:36.434Z,0.00
2019-04-11T16:59:36.453Z,0.00
2019-04-11T17:00:36.477Z,0.00
2019-04-11T17:01:36.499Z,0.00
2019-04-11T17:02:36.516Z,0.00
2019-04-11T17:03:36.535Z,0.00
2019-04-11T17:04:36.558Z,0.00
2019-04-11T17:05:36.578Z,0.00
2019-04-11T17:06:36.597Z,0.00
2019-04-11T17:07:36.622Z,0.00
2019-04-11T17:08:36.652Z,0.00
2019-04-11T17:09:36.661Z,0.00
2019-04-11T17:10:38.782Z,0.00
2019-04-11T17:11:36.700Z,0.00
2019-04-11T17:12:36.721Z,0.00
2019-04-11T17:13:36.739Z,0.00
2019-04-11T17:14:36.761Z,0.00
2019-04-11T17:15:36.798Z,0.00
2019-04-11T17:16:36.804Z,0.00
2019-04-11T17:17:36.825Z,0.00
2019-04-11T17:18:36.843Z,0.00
2019-04-11T17:19:36.935Z,0.00